createdAt,value
2023-05-21T00:02:47.108Z,31.55
2023-05-21T00:22:46.950Z,31.56
2023-05-21T00:42:46.898Z,31.55
2023-05-21T01:02:47.018Z,31.55
2023-05-21T01:22:46.852Z,31.55
2023-05-21T02:02:46.806Z,31.55
2023-05-21T02:22:46.754Z,31.54
2023-05-21T02:42:46.721Z,31.55
2023-05-21T03:02:46.157Z,31.54
2023-05-21T03:22:46.666Z,31.54
2023-05-21T03:42:46.631Z,31.55
2023-05-21T04:02:46.628Z,31.54
2023-05-21T04:22:46.609Z,31.54
2023-05-21T04:42:46.522Z,31.54
2023-05-21T05:02:46.533Z,31.54
2023-05-21T05:22:46.458Z,31.54
2023-05-21T06:22:46.350Z,31.54
2023-05-21T06:42:46.323Z,31.54
2023-05-21T07:22:46.257Z,31.53
2023-05-21T07:42:46.233Z,31.53
2023-05-21T08:02:45.984Z,31.53
2023-05-21T08:22:46.176Z,31.53
2023-05-21T08:42:46.133Z,31.53
2023-05-21T10:22:45.943Z,31.52
2023-05-21T10:42:45.920Z,31.53
2023-05-21T11:22:45.837Z,31.52
2023-05-21T11:42:45.776Z,31.52
2023-05-21T12:22:45.783Z,31.52
2023-05-21T13:02:45.651Z,31.52
2023-05-21T13:22:45.630Z,31.52
2023-05-21T13:42:45.707Z,31.52
2023-05-21T14:02:45.821Z,31.51
2023-05-21T14:22:45.516Z,31.52
2023-05-21T14:42:45.488Z,31.51
2023-05-21T15:22:45.437Z,31.51
2023-05-21T15:42:45.368Z,31.51
2023-05-21T16:02:45.362Z,31.51
2023-05-21T16:22:45.285Z,31.51
2023-05-21T16:42:44.987Z,31.51
2023-05-21T17:22:45.213Z,31.51
2023-05-21T17:42:45.143Z,31.5
2023-05-21T18:02:45.142Z,31.51
2023-05-21T18:22:45.112Z,31.5
2023-05-21T18:42:45.034Z,31.5
2023-05-21T19:02:45.041Z,31.5
2023-05-21T19:22:44.960Z,31.5
2023-05-21T19:42:45.086Z,31.5
2023-05-21T20:02:44.909Z,31.5
2023-05-21T20:22:44.866Z,31.5
2023-05-21T20:42:44.573Z,31.5
2023-05-21T21:02:44.820Z,31.5
2023-05-21T21:22:44.733Z,31.49
2023-05-21T21:42:44.722Z,31.49
2023-05-21T22:02:44.680Z,31.49
2023-05-21T22:22:44.633Z,31.49
2023-05-21T22:42:44.606Z,31.49
2023-05-21T23:02:44.587Z,31.48
2023-05-21T23:22:44.520Z,31.48
2023-05-21T23:42:44.518Z,31.48
